Time;durP1;ratioP1;P1;durP2;ratioP2;P2;SDS_P1;SDS_P2;PMS_P1;PMS_P2;Temp;Humidity;BMP_temperature;BMP_pressure;BME280_temperature;BME280_humidity;BME280_pressure;Samples;Min_cycle;Max_cycle;Signal;HPM_P1;HPM_P2
2021/11/01 00:02:12;;;;;;;6.60;6.00;;;18.60;55.10;;;;;;5049390;28;20235;-49
2021/11/01 00:04:40;;;;;;;7.07;6.47;;;18.60;55.00;;;;;;5042402;28;20603;-48
2021/11/01 00:07:06;;;;;;;7.83;7.10;;;18.70;54.70;;;;;;5055263;28;20199;-48
2021/11/01 00:09:32;;;;;;;6.97;6.10;;;18.80;54.60;;;;;;5049645;28;20483;-50
2021/11/01 00:11:57;;;;;;;7.37;6.37;;;18.80;54.30;;;;;;5061035;28;20702;-48
2021/11/01 00:14:24;;;;;;;6.30;5.70;;;18.80;54.10;;;;;;5053676;28;20577;-49
2021/11/01 00:16:50;;;;;;;6.57;5.90;;;18.30;55.20;;;;;;5039280;28;20562;-48
2021/11/01 00:19:16;;;;;;;6.73;5.93;;;18.20;56.10;;;;;;5055420;28;20476;-49
2021/11/01 00:21:41;;;;;;;10.77;6.20;;;18.30;56.10;;;;;;5046273;28;20208;-49
2021/11/01 00:24:07;;;;;;;6.73;5.70;;;18.00;56.60;;;;;;5052271;28;20215;-48
2021/11/01 00:26:33;;;;;;;7.00;5.90;;;18.00;56.80;;;;;;5052044;28;20193;-53
2021/11/01 00:29:03;;;;;;;6.23;5.10;;;18.20;56.60;;;;;;5051708;28;20328;-49
2021/11/01 00:31:29;;;;;;;6.60;5.73;;;18.30;56.10;;;;;;5056704;28;20959;-49
2021/11/01 00:33:55;;;;;;;5.40;4.90;;;18.50;55.50;;;;;;5056752;28;20479;-48
2021/11/01 00:36:21;;;;;;;5.77;5.20;;;18.70;55.20;;;;;;5053524;28;20487;-51
2021/11/01 00:38:48;;;;;;;7.70;4.80;;;18.70;55.00;;;;;;5052830;28;20188;-51
2021/11/01 00:41:15;;;;;;;5.10;4.60;;;18.80;54.80;;;;;;5049854;28;20208;-51
2021/11/01 00:43:40;;;;;;;4.90;4.40;;;18.90;54.50;;;;;;5051453;28;20480;-48
2021/11/01 00:46:06;;;;;;;7.80;4.77;;;19.00;54.50;;;;;;5047796;28;20833;-51
2021/11/01 00:48:31;;;;;;;4.73;3.60;;;19.10;54.50;;;;;;5054715;28;20224;-52
2021/11/01 00:50:57;;;;;;;6.87;4.73;;;19.30;54.60;;;;;;5056751;28;20274;-51
2021/11/01 00:53:29;;;;;;;5.60;4.57;;;19.30;54.80;;;;;;5055902;28;20193;-53
2021/11/01 00:55:56;;;;;;;6.53;5.30;;;19.40;54.00;;;;;;5058480;28;20560;-52
2021/11/01 00:58:23;;;;;;;4.87;4.47;;;19.40;53.70;;;;;;5046929;28;21241;-53
2021/11/01 01:00:49;;;;;;;5.30;4.00;;;19.40;53.80;;;;;;5048433;28;20442;-52
2021/11/01 01:03:15;;;;;;;4.07;3.77;;;19.50;53.90;;;;;;5054477;28;20470;-51
2021/11/01 01:05:43;;;;;;;6.50;4.40;;;19.60;53.90;;;;;;5054405;28;20914;-51
2021/11/01 01:08:09;;;;;;;10.33;7.27;;;19.70;53.60;;;;;;5042995;28;20457;-53
2021/11/01 01:10:35;;;;;;;9.80;7.13;;;19.60;53.70;;;;;;5062319;28;20441;-53
2021/11/01 01:13:01;;;;;;;11.33;7.83;;;19.70;53.60;;;;;;5060301;28;20438;-51
2021/11/01 01:15:29;;;;;;;9.33;6.63;;;19.70;53.40;;;;;;5059472;28;20212;-52
2021/11/01 01:18:02;;;;;;;9.73;6.33;;;19.70;53.40;;;;;;5053563;28;20290;-53
2021/11/01 01:20:28;;;;;;;5.37;3.60;;;19.60;53.60;;;;;;5065365;28;20478;-53
2021/11/01 01:22:53;;;;;;;10.70;4.10;;;19.60;53.90;;;;;;5060735;28;20516;-49
2021/11/01 01:25:29;;;;;;;6.40;4.67;;;19.70;54.10;;;;;;5062237;28;20285;-52
2021/11/01 01:27:55;;;;;;;9.00;3.97;;;19.80;54.40;;;;;;5047686;28;20229;-53
2021/11/01 01:30:22;;;;;;;4.47;3.77;;;19.90;54.00;;;;;;5059504;28;20481;-53
2021/11/01 01:32:47;;;;;;;11.40;3.80;;;20.00;53.70;;;;;;5052549;28;20200;-52
2021/11/01 01:35:13;;;;;;;5.17;2.73;;;20.10;53.80;;;;;;5056376;28;20441;-52
2021/11/01 01:37:39;;;;;;;2.93;2.70;;;20.10;53.60;;;;;;5042958;28;20284;-50
2021/11/01 01:40:07;;;;;;;2.87;2.60;;;20.10;53.60;;;;;;5049324;28;20450;-52
2021/11/01 01:42:34;;;;;;;4.90;4.50;;;20.20;53.60;;;;;;5058705;28;20450;-51
2021/11/01 01:45:00;;;;;;;4.50;4.10;;;20.20;53.30;;;;;;5047077;28;20446;-52
2021/11/01 01:47:25;;;;;;;8.37;5.60;;;20.20;52.90;;;;;;5060481;28;20815;-50
2021/11/01 01:49:51;;;;;;;6.60;6.00;;;20.20;52.80;;;;;;5046158;28;20286;-52
2021/11/01 01:52:19;;;;;;;9.37;6.80;;;20.10;53.00;;;;;;5055390;28;20278;-49
2021/11/01 01:54:45;;;;;;;5.93;5.43;;;20.10;52.90;;;;;;5056883;28;20193;-52
2021/11/01 01:57:10;;;;;;;5.97;4.73;;;20.00;52.80;;;;;;5041910;28;20933;-53
2021/11/01 01:59:36;;;;;;;5.43;4.80;;;19.80;53.40;;;;;;5058449;28;20215;-51
2021/11/01 02:02:02;;;;;;;4.60;4.30;;;19.60;54.10;;;;;;5048944;28;20192;-50
2021/11/01 02:04:29;;;;;;;4.10;3.70;;;19.60;54.40;;;;;;5079593;28;20199;-51
2021/11/01 02:07:35;;;;;;;4.00;3.07;;;19.60;54.70;;;;;;5057247;28;20957;-53
2021/11/01 02:10:08;;;;;;;2.70;2.27;;;19.50;56.20;;;;;;4982670;28;20874;-50
2021/11/01 02:12:55;;;;;;;2.47;1.67;;;18.80;58.40;;;;;;5041530;28;20537;-51
2021/11/01 02:15:30;;;;;;;3.40;1.70;;;18.50;59.70;;;;;;5044845;28;21333;-53
2021/11/01 02:17:57;;;;;;;2.10;1.00;;;18.20;60.50;;;;;;5042955;28;20450;-52
2021/11/01 02:21:02;;;;;;;3.90;1.20;;;18.20;60.40;;;;;;5055625;28;21027;-51
2021/11/01 02:23:42;;;;;;;1.50;1.07;;;18.40;60.20;;;;;;5038528;28;20483;-50
2021/11/01 02:26:12;;;;;;;3.77;1.40;;;18.30;60.00;;;;;;5048901;28;20452;-48
2021/11/01 02:28:40;;;;;;;2.13;1.30;;;18.30;59.70;;;;;;5053084;28;20466;-49
2021/11/01 02:31:10;;;;;;;3.57;1.70;;;18.30;59.80;;;;;;5045722;28;20449;-52
2021/11/01 02:33:37;;;;;;;2.27;1.30;;;18.40;59.50;;;;;;5058511;28;20450;-48
2021/11/01 02:36:04;;;;;;;1.63;0.90;;;18.40;59.30;;;;;;5058798;28;20445;-50
2021/11/01 02:38:31;;;;;;;3.60;1.03;;;18.60;58.90;;;;;;5052540;28;22463;-48
2021/11/01 02:40:58;;;;;;;2.90;1.10;;;18.60;58.30;;;;;;5052122;28;20572;-52
2021/11/01 02:43:26;;;;;;;2.10;0.93;;;18.30;57.90;;;;;;5061376;28;21071;-52
2021/11/01 02:45:56;;;;;;;2.10;1.17;;;18.20;58.20;;;;;;5051359;28;20486;-50
2021/11/01 02:48:21;;;;;;;0.90;0.80;;;18.20;58.40;;;;;;5060560;28;20458;-48
2021/11/01 02:50:47;;;;;;;1.90;1.07;;;18.40;58.00;;;;;;5041592;28;20455;-50
2021/11/01 02:53:13;;;;;;;1.63;1.13;;;18.30;57.80;;;;;;5048739;28;20199;-52
2021/11/01 02:55:38;;;;;;;2.87;1.13;;;18.10;58.30;;;;;;5051138;28;20193;-51
2021/11/01 02:58:05;;;;;;;1.43;0.90;;;18.10;58.90;;;;;;5061712;28;20197;-50
2021/11/01 03:00:31;;;;;;;2.33;1.23;;;18.10;59.20;;;;;;5058224;28;20609;-51
2021/11/01 03:02:57;;;;;;;1.77;0.90;;;18.00;59.70;;;;;;5057145;28;20473;-52
2021/11/01 03:05:25;;;;;;;1.73;0.80;;;18.00;59.80;;;;;;5057017;28;20441;-50
2021/11/01 03:07:53;;;;;;;1.50;1.13;;;18.20;59.70;;;;;;5058890;28;20442;-52
2021/11/01 03:10:21;;;;;;;3.43;1.30;;;18.40;59.30;;;;;;5052985;28;20486;-53
2021/11/01 03:12:48;;;;;;;3.20;1.70;;;18.50;59.20;;;;;;5051082;28;20465;-51
2021/11/01 03:15:21;;;;;;;2.73;1.20;;;18.60;58.90;;;;;;5048032;28;20445;-52
2021/11/01 03:17:49;;;;;;;2.87;0.90;;;18.80;58.80;;;;;;5046811;28;20446;-49
2021/11/01 03:20:27;;;;;;;1.77;1.00;;;18.80;58.60;;;;;;5064315;28;20477;-51
2021/11/01 03:23:13;;;;;;;4.03;1.40;;;18.60;58.40;;;;;;5046467;28;20449;-50
2021/11/01 03:25:45;;;;;;;1.70;0.90;;;18.40;59.00;;;;;;5058368;28;20475;-51
2021/11/01 03:28:12;;;;;;;2.20;1.00;;;18.40;58.80;;;;;;5053627;28;20481;-50
2021/11/01 03:30:40;;;;;;;3.97;1.10;;;18.50;58.70;;;;;;5048132;28;20490;-51
2021/11/01 03:33:06;;;;;;;5.13;1.10;;;18.50;58.70;;;;;;5052359;28;20454;-49
2021/11/01 03:35:34;;;;;;;3.03;1.17;;;18.50;59.10;;;;;;5057339;28;20976;-52
2021/11/01 03:38:01;;;;;;;2.87;1.03;;;18.40;59.00;;;;;;5052461;28;20459;-50
2021/11/01 03:40:31;;;;;;;6.37;1.40;;;18.40;59.10;;;;;;5051252;28;20446;-49
2021/11/01 03:42:58;;;;;;;3.70;1.30;;;18.40;59.30;;;;;;5049694;28;20798;-50
2021/11/01 03:45:25;;;;;;;2.23;1.53;;;18.40;59.60;;;;;;5059811;28;20434;-52
2021/11/01 03:47:54;;;;;;;3.50;2.13;;;18.40;59.70;;;;;;5054424;28;20611;-48
2021/11/01 03:52:48;;;;;;;3.00;1.73;;;18.40;59.80;;;;;;5052256;28;20477;-52
2021/11/01 03:55:14;;;;;;;6.60;1.23;;;18.50;59.80;;;;;;5049873;28;20449;-50
2021/11/01 03:57:40;;;;;;;3.30;1.20;;;18.30;59.70;;;;;;5050125;28;20446;-49
2021/11/01 04:00:07;;;;;;;5.83;1.20;;;18.10;59.90;;;;;;5050344;28;20462;-49
2021/11/01 04:02:33;;;;;;;2.00;1.17;;;18.10;60.10;;;;;;5050354;28;20201;-50
2021/11/01 04:05:02;;;;;;;1.47;1.00;;;18.10;60.20;;;;;;5054669;28;21301;-49
2021/11/01 04:07:30;;;;;;;3.20;1.43;;;18.10;60.20;;;;;;5056392;28;20442;-48
2021/11/01 04:09:55;;;;;;;1.73;1.13;;;18.10;60.30;;;;;;5053575;28;21891;-49
2021/11/01 04:12:21;;;;;;;5.33;2.70;;;17.90;60.40;;;;;;5051782;28;20477;-50
2021/11/01 04:14:54;;;;;;;3.33;1.00;;;17.90;60.60;;;;;;5048882;28;20215;-49
2021/11/01 04:17:22;;;;;;;3.17;1.10;;;17.90;61.10;;;;;;5056118;28;20857;-50
2021/11/01 04:20:00;;;;;;;1.70;1.30;;;17.80;61.10;;;;;;5063706;28;20487;-48
2021/11/01 04:22:28;;;;;;;4.20;1.87;;;17.80;60.80;;;;;;5061925;28;20488;-50
2021/11/01 04:24:54;;;;;;;1.53;1.10;;;17.50;61.30;;;;;;5058927;28;21109;-49
2021/11/01 04:27:19;;;;;;;4.30;1.17;;;17.60;61.70;;;;;;5064150;28;20565;-49
2021/11/01 04:29:45;;;;;;;2.30;1.47;;;17.60;61.80;;;;;;5059741;28;20318;-49
2021/11/01 04:35:02;;;;;;;5.40;1.70;;;17.20;62.50;;;;;;5047405;28;20223;-49
2021/11/01 04:37:29;;;;;;;4.43;1.83;;;17.30;62.70;;;;;;5046948;28;20442;-50
2021/11/01 04:53:26;;;;;;;2.20;1.17;;;17.50;63.10;;;;;;5051458;28;21055;-49
2021/11/01 04:55:54;;;;;;;7.70;2.57;;;17.50;64.10;;;;;;5060880;28;20450;-49
2021/11/01 04:58:20;;;;;;;1.93;1.20;;;17.40;63.30;;;;;;5051207;28;20451;-49
2021/11/01 05:00:47;;;;;;;3.80;1.40;;;17.40;63.30;;;;;;5053222;28;20441;-49
2021/11/01 05:03:38;;;;;;;3.77;1.93;;;17.40;63.50;;;;;;5053293;28;20238;-48
2021/11/01 05:06:00;;;;;;;5.10;1.30;;;17.40;63.50;;;;;;5046297;28;20458;-48
2021/11/01 05:08:32;;;;;;;2.13;0.80;;;17.20;63.60;;;;;;5053326;28;20785;-49
2021/11/01 05:11:03;;;;;;;4.27;2.33;;;17.20;63.70;;;;;;5055582;28;20196;-51
2021/11/01 05:13:31;;;;;;;5.70;3.37;;;17.30;63.60;;;;;;5054522;28;20447;-49
2021/11/01 05:16:24;;;;;;;4.10;2.30;;;17.30;63.90;;;;;;5047756;28;20439;-50
2021/11/01 05:21:58;;;;;;;2.70;1.80;;;17.40;63.60;;;;;;5043675;28;20450;-48
2021/11/01 05:24:36;;;;;;;4.80;1.73;;;17.30;63.50;;;;;;5064720;28;20458;-52
2021/11/01 05:29:27;;;;;;;2.77;1.37;;;17.20;63.60;;;;;;5047937;28;20486;-51
2021/11/01 05:32:17;;;;;;;5.00;1.47;;;17.20;63.80;;;;;;5049289;28;20193;-51
2021/11/01 05:34:43;;;;;;;4.70;1.13;;;17.10;64.00;;;;;;5040681;28;20562;-52
2021/11/01 05:37:09;;;;;;;5.60;1.40;;;16.80;64.30;;;;;;5041663;28;20446;-51
2021/11/01 05:39:37;;;;;;;17.47;9.70;;;16.90;65.00;;;;;;5054829;28;20315;-53
2021/11/01 05:42:03;;;;;;;20.07;10.10;;;16.90;65.00;;;;;;5060553;28;20446;-51
2021/11/01 05:44:29;;;;;;;11.70;4.93;;;16.90;65.20;;;;;;5051734;28;20451;-52
2021/11/01 05:46:55;;;;;;;6.60;4.20;;;17.00;65.60;;;;;;5056821;28;20860;-52
2021/11/01 05:49:22;;;;;;;8.13;3.47;;;17.20;65.40;;;;;;5051354;28;20316;-52
2021/11/01 05:51:50;;;;;;;4.33;2.67;;;17.30;64.60;;;;;;5046593;28;20279;-51
2021/11/01 05:54:20;;;;;;;4.23;2.53;;;17.50;64.20;;;;;;5046697;28;20446;-49
2021/11/01 05:59:37;;;;;;;2.20;1.60;;;17.60;62.50;;;;;;5052407;28;20588;-50
2021/11/01 06:02:21;;;;;;;9.90;2.60;;;17.60;62.20;;;;;;5051234;28;20541;-51
2021/11/01 06:10:12;;;;;;;1.93;1.30;;;17.60;62.70;;;;;;5042135;28;20493;-50
2021/11/01 06:15:27;;;;;;;3.47;1.40;;;17.50;62.70;;;;;;5035711;28;20788;-51
2021/11/01 06:17:55;;;;;;;2.07;1.10;;;17.50;62.70;;;;;;5043713;28;20964;-47
2021/11/01 06:20:21;;;;;;;2.20;1.67;;;17.50;62.80;;;;;;5049500;28;20989;-51
2021/11/01 06:22:47;;;;;;;1.97;1.37;;;17.60;62.90;;;;;;5047406;28;20800;-49
2021/11/01 06:25:15;;;;;;;2.20;1.57;;;17.60;62.70;;;;;;5044691;28;20522;-49
2021/11/01 06:27:42;;;;;;;2.60;1.57;;;17.60;62.10;;;;;;5035452;28;20197;-49
2021/11/01 06:30:19;;;;;;;3.23;1.67;;;17.60;62.40;;;;;;5038042;28;20509;-49
2021/11/01 06:32:48;;;;;;;4.77;2.00;;;17.60;62.40;;;;;;5046422;28;20435;-53
2021/11/01 06:40:58;;;;;;;3.33;2.30;;;17.50;62.30;;;;;;5037780;28;21299;-48
2021/11/01 06:51:56;;;;;;;2.87;1.73;;;17.10;63.50;;;;;;5047054;28;20861;-48
2021/11/01 06:57:14;;;;;;;2.73;2.53;;;16.70;65.20;;;;;;5035941;28;20497;-48
2021/11/01 07:16:17;;;;;;;4.10;2.17;;;15.50;70.30;;;;;;5039509;28;20488;-48
2021/11/01 08:21:48;;;;;;;1.23;1.00;;;16.60;61.80;;;;;;5050444;28;20489;-48
2021/11/01 08:40:44;;;;;;;0.90;0.83;;;16.00;62.00;;;;;;5040134;28;20428;-48
2021/11/01 08:48:29;;;;;;;1.70;1.37;;;16.00;63.00;;;;;;5053826;28;20423;-52
2021/11/01 08:51:08;;;;;;;1.23;1.07;;;16.00;63.30;;;;;;5053478;28;20450;-51
2021/11/01 09:20:49;;;;;;;1.83;1.27;;;15.70;67.50;;;;;;5052754;28;20501;-52
2021/11/01 09:26:04;;;;;;;4.07;1.77;;;15.30;67.70;;;;;;5052007;28;20422;-48
2021/11/01 09:28:35;;;;;;;1.57;1.30;;;15.40;67.30;;;;;;5040970;28;20439;-48
2021/11/01 09:41:32;;;;;;;1.70;1.20;;;15.30;66.40;;;;;;5052200;28;20458;-50
2021/11/01 09:43:59;;;;;;;1.57;1.40;;;15.20;66.60;;;;;;5053244;28;20431;-48
2021/11/01 09:46:26;;;;;;;1.17;1.07;;;14.90;67.50;;;;;;5052362;28;20518;-50
2021/11/01 09:51:38;;;;;;;2.70;1.13;;;15.00;68.00;;;;;;5052096;28;20933;-49
2021/11/01 09:54:06;;;;;;;3.60;1.50;;;15.10;68.20;;;;;;5052804;28;20419;-50
2021/11/01 09:56:46;;;;;;;1.40;1.20;;;15.20;67.60;;;;;;5051967;28;20513;-48
2021/11/01 09:59:12;;;;;;;3.37;1.20;;;15.50;67.30;;;;;;5052273;28;21013;-51
2021/11/01 10:01:39;;;;;;;1.47;1.37;;;15.70;66.30;;;;;;5051919;28;20514;-47
2021/11/01 10:04:14;;;;;;;2.27;1.83;;;15.60;66.30;;;;;;5052024;28;20247;-49
2021/11/01 10:06:40;;;;;;;9.47;4.27;;;15.50;67.20;;;;;;5051714;28;20438;-51
2021/11/01 10:09:12;;;;;;;1.70;1.30;;;15.50;66.90;;;;;;5052696;28;21016;-50
2021/11/01 10:11:39;;;;;;;1.57;1.43;;;15.60;67.60;;;;;;5051581;28;20199;-49
2021/11/01 10:14:09;;;;;;;1.77;1.37;;;15.70;65.70;;;;;;5052196;28;20952;-48
2021/11/01 10:19:38;;;;;;;1.00;0.90;;;15.80;65.00;;;;;;5052219;28;20558;-49
2021/11/01 10:22:06;;;;;;;2.33;1.20;;;15.90;64.20;;;;;;5052084;28;20443;-48
2021/11/01 10:24:40;;;;;;;1.13;1.03;;;16.00;64.30;;;;;;5051784;28;20443;-49
2021/11/01 10:27:12;;;;;;;1.83;1.13;;;16.20;64.40;;;;;;5048634;28;20491;-47
2021/11/01 10:29:57;;;;;;;3.00;1.17;;;16.30;63.80;;;;;;5044111;28;20832;-49
2021/11/01 10:32:48;;;;;;;1.17;1.07;;;16.20;62.10;;;;;;5050476;28;20534;-49
2021/11/01 10:35:20;;;;;;;1.67;0.90;;;16.20;61.90;;;;;;5050906;28;20993;-48
2021/11/01 10:40:41;;;;;;;1.07;0.97;;;15.90;61.30;;;;;;5051531;28;20518;-48
2021/11/01 10:43:25;;;;;;;1.07;0.80;;;15.80;62.20;;;;;;5052056;28;20537;-48
2021/11/01 11:13:54;;;;;;;2.00;1.27;;;16.60;61.80;;;;;;5051423;28;20449;-48
2021/11/01 11:24:44;;;;;;;2.13;1.63;;;16.60;60.60;;;;;;5049799;28;20449;-48
2021/11/01 11:42:20;;;;;;;1.90;1.47;;;16.80;61.30;;;;;;5049876;28;20446;-49
2021/11/01 11:47:14;;;;;;;1.83;1.40;;;16.80;61.70;;;;;;5050868;28;20481;-48
2021/11/01 11:49:40;;;;;;;3.43;1.47;;;16.80;61.70;;;;;;5050587;28;20561;-49
2021/11/01 11:52:11;;;;;;;2.80;1.60;;;16.80;61.60;;;;;;5049320;28;20419;-50
2021/11/01 11:54:59;;;;;;;1.77;1.67;;;16.80;61.70;;;;;;5050196;28;20427;-50
2021/11/01 11:57:29;;;;;;;2.17;1.47;;;16.50;61.30;;;;;;5050812;28;20461;-48
2021/11/01 11:59:58;;;;;;;7.00;1.87;;;16.30;62.40;;;;;;5050209;28;21261;-48
2021/11/01 12:02:34;;;;;;;1.60;1.40;;;16.20;62.80;;;;;;5050840;28;20784;-49
2021/11/01 12:07:52;;;;;;;1.83;1.73;;;16.10;63.30;;;;;;5054948;28;20423;-49
2021/11/01 12:13:07;;;;;;;3.73;1.73;;;16.30;62.80;;;;;;5055202;28;21325;-50
2021/11/01 12:18:28;;;;;;;3.83;2.77;;;16.50;62.90;;;;;;5052583;28;20452;-52
2021/11/01 12:21:00;;;;;;;3.50;2.50;;;16.50;62.20;;;;;;5054108;28;20446;-51
2021/11/01 12:23:37;;;;;;;2.40;2.00;;;16.30;61.80;;;;;;5054400;28;20887;-51
2021/11/01 12:26:08;;;;;;;2.97;2.00;;;16.40;62.20;;;;;;5053410;28;20430;-53
2021/11/01 12:28:33;;;;;;;1.70;1.60;;;16.50;62.30;;;;;;5054345;28;20522;-52
2021/11/01 12:30:59;;;;;;;3.37;1.40;;;16.50;62.30;;;;;;5054024;28;20931;-51
2021/11/01 12:33:26;;;;;;;1.50;1.40;;;16.60;62.30;;;;;;5054571;28;20652;-51
2021/11/01 12:35:57;;;;;;;2.53;1.70;;;16.60;62.90;;;;;;5053350;28;20200;-53
2021/11/01 12:38:52;;;;;;;7.50;2.60;;;16.60;61.80;;;;;;5054233;28;20492;-51
2021/11/01 12:45:18;;;;;;;2.00;1.90;;;16.70;61.90;;;;;;5051101;28;21171;-52
2021/11/01 12:47:42;;;;;;;3.50;2.40;;;16.50;61.60;;;;;;5053690;28;20795;-51
2021/11/01 12:58:26;;;;;;;5.40;2.17;;;16.10;63.90;;;;;;5054015;28;20485;-49
2021/11/01 13:00:51;;;;;;;4.53;2.63;;;16.10;63.30;;;;;;5053320;28;20618;-52
2021/11/01 13:03:21;;;;;;;1.73;1.63;;;16.10;63.70;;;;;;5053699;28;20457;-48
2021/11/01 13:05:55;;;;;;;3.30;1.33;;;16.10;64.10;;;;;;5052655;28;20227;-51
2021/11/01 13:08:28;;;;;;;2.37;1.40;;;16.00;63.70;;;;;;5053665;28;20431;-52
2021/11/01 13:11:01;;;;;;;3.50;1.50;;;16.00;63.50;;;;;;5052426;28;20950;-52
2021/11/01 13:19:15;;;;;;;2.20;1.47;;;15.90;63.50;;;;;;5053841;28;20562;-49
2021/11/01 13:22:00;;;;;;;1.73;1.63;;;15.70;63.60;;;;;;5052887;28;21279;-51
2021/11/01 13:24:44;;;;;;;2.83;1.60;;;15.90;63.80;;;;;;5052819;28;20419;-52
2021/11/01 13:28:26;;;;;;;1.73;1.53;;;16.00;63.30;;;;;;5053292;28;20427;-50
2021/11/01 13:38:40;;;;;;;3.33;2.10;;;15.60;64.40;;;;;;5051462;28;20902;-49
2021/11/01 13:41:14;;;;;;;1.50;1.40;;;15.60;64.40;;;;;;5049730;28;20590;-52
2021/11/01 13:43:40;;;;;;;4.20;2.10;;;15.60;64.10;;;;;;5052789;28;20530;-52
2021/11/01 13:46:06;;;;;;;7.07;4.70;;;15.50;63.70;;;;;;5052002;28;20506;-52
2021/11/01 13:48:33;;;;;;;7.60;4.20;;;15.50;64.20;;;;;;5052876;28;20246;-52
2021/11/01 13:51:12;;;;;;;4.17;2.93;;;15.60;64.20;;;;;;5052334;28;20665;-53
2021/11/01 13:56:44;;;;;;;1.57;1.47;;;15.70;63.70;;;;;;5051517;28;20768;-51
2021/11/01 14:00:11;;;;;;;1.40;1.30;;;15.70;63.20;;;;;;5052117;28;20580;-50
2021/11/01 14:13:02;;;;;;;1.70;1.60;;;15.50;63.90;;;;;;5040003;28;20430;-51
2021/11/01 14:35:15;;;;;;;2.60;2.40;;;16.00;63.40;;;;;;5050803;28;20422;-49
2021/11/01 15:03:22;;;;;;;6.33;3.70;;;16.10;61.70;;;;;;5051522;28;20930;-51
2021/11/01 15:21:32;;;;;;;5.00;4.60;;;15.80;62.30;;;;;;5049804;28;20231;-52
2021/11/01 15:29:30;;;;;;;3.40;2.10;;;16.10;61.50;;;;;;5050921;28;20231;-48
2021/11/01 15:32:28;;;;;;;3.43;2.37;;;16.10;60.50;;;;;;5050391;28;20441;-48
2021/11/01 16:18:06;;;;;;;2.00;1.77;;;15.40;62.00;;;;;;5053156;28;20434;-53
2021/11/01 16:20:32;;;;;;;2.40;1.63;;;15.50;61.60;;;;;;5053944;28;20826;-50
2021/11/01 16:25:33;;;;;;;2.10;1.90;;;15.60;61.00;;;;;;5053462;28;20841;-51
2021/11/01 16:27:59;;;;;;;2.30;1.67;;;15.60;61.20;;;;;;5054360;28;20426;-50
2021/11/01 16:30:29;;;;;;;2.13;2.00;;;15.50;61.10;;;;;;5053890;28;20540;-50
2021/11/01 16:33:02;;;;;;;2.17;1.90;;;15.40;61.80;;;;;;5054407;28;20838;-49
2021/11/01 16:35:42;;;;;;;2.60;2.20;;;15.30;62.30;;;;;;5053648;28;20468;-49
2021/11/01 16:38:11;;;;;;;4.03;3.03;;;15.30;62.60;;;;;;5053947;28;20433;-48
2021/11/01 16:40:42;;;;;;;6.90;4.50;;;15.20;62.30;;;;;;5050463;28;20798;-48
2021/11/01 16:43:16;;;;;;;5.97;2.87;;;15.20;62.50;;;;;;5053024;28;20449;-53
2021/11/01 16:45:44;;;;;;;2.90;2.00;;;15.20;62.10;;;;;;5051862;28;20445;-53
2021/11/01 16:48:10;;;;;;;3.00;1.90;;;15.00;61.50;;;;;;5053804;28;20492;-49
2021/11/01 16:50:36;;;;;;;3.70;2.70;;;15.00;61.30;;;;;;5052772;28;20491;-52
2021/11/01 16:53:02;;;;;;;3.80;2.40;;;15.20;61.80;;;;;;5053912;28;20237;-52
2021/11/01 16:55:34;;;;;;;2.83;2.30;;;15.60;61.30;;;;;;5053195;28;20419;-50
2021/11/01 16:58:28;;;;;;;2.40;2.23;;;15.80;61.00;;;;;;5053625;28;20250;-48
2021/11/01 17:01:01;;;;;;;2.57;2.10;;;15.90;60.60;;;;;;5053326;28;20454;-53
2021/11/01 17:06:06;;;;;;;4.33;3.10;;;15.90;60.10;;;;;;5053517;28;20442;-51
2021/11/01 18:24:10;;;;;;;4.50;2.63;;;16.50;60.60;;;;;;5051515;28;20435;-48
2021/11/01 18:40:41;;;;;;;7.63;4.50;;;15.00;63.30;;;;;;5048935;28;20529;-50
2021/11/01 18:45:59;;;;;;;5.40;4.40;;;15.20;62.00;;;;;;5051430;28;20422;-48
2021/11/01 18:54:27;;;;;;;6.03;5.00;;;15.50;61.00;;;;;;5046196;28;20443;-48
2021/11/01 18:56:58;;;;;;;6.80;5.60;;;15.60;61.20;;;;;;5050805;28;20430;-50
2021/11/01 18:59:26;;;;;;;4.27;3.73;;;15.30;62.70;;;;;;5050021;28;20426;-48
2021/11/01 19:05:31;;;;;;;6.50;4.83;;;15.00;62.60;;;;;;5023419;28;20431;-49
2021/11/01 19:08:04;;;;;;;6.33;4.67;;;14.90;63.10;;;;;;5050954;28;20501;-49
2021/11/01 20:02:35;;;;;;;5.37;4.87;;;14.90;63.10;;;;;;5051734;28;20458;-49
2021/11/01 20:05:51;;;;;;;3.70;3.40;;;15.30;59.40;;;;;;5047807;28;20443;-49
2021/11/01 20:16:39;;;;;;;6.00;4.50;;;15.00;59.50;;;;;;5050384;28;20462;-51
2021/11/01 21:26:23;;;;;;;3.70;2.97;;;14.70;58.00;;;;;;5073113;28;20935;-48
2021/11/01 21:28:51;;;;;;;4.73;2.80;;;14.60;58.20;;;;;;5073104;28;20805;-49
2021/11/01 21:31:18;;;;;;;3.30;2.90;;;14.70;58.60;;;;;;5072793;28;20569;-48
2021/11/01 21:33:50;;;;;;;4.97;2.90;;;14.70;58.40;;;;;;5072781;28;20827;-49
2021/11/01 21:36:23;;;;;;;3.60;3.20;;;14.70;58.20;;;;;;5072226;28;20426;-48
2021/11/01 21:38:50;;;;;;;3.47;3.17;;;14.60;58.00;;;;;;5071813;28;20430;-52
2021/11/01 21:41:16;;;;;;;5.37;3.90;;;14.60;58.40;;;;;;5051925;28;20435;-49
2021/11/01 21:43:42;;;;;;;9.30;4.67;;;14.50;58.40;;;;;;5052772;28;20419;-48
2021/11/01 21:46:07;;;;;;;4.90;4.37;;;14.60;58.40;;;;;;5052510;28;20279;-48
2021/11/01 21:48:33;;;;;;;3.90;3.50;;;14.60;58.20;;;;;;5052895;28;20197;-53
2021/11/01 21:50:59;;;;;;;4.17;3.10;;;14.60;58.20;;;;;;5051950;28;20306;-51
2021/11/01 21:53:26;;;;;;;4.30;3.03;;;14.40;58.70;;;;;;5052676;28;20208;-53
2021/11/01 21:55:52;;;;;;;4.47;3.27;;;14.30;58.80;;;;;;5052305;28;20489;-50
2021/11/01 22:16:52;;;;;;;5.77;5.20;;;14.30;58.60;;;;;;5051984;28;20523;-53
2021/11/01 22:22:00;;;;;;;6.20;5.03;;;14.20;58.60;;;;;;5051845;28;20463;-53
2021/11/01 22:24:34;;;;;;;4.73;4.00;;;14.20;58.80;;;;;;5051742;28;20949;-53
2021/11/01 22:43:18;;;;;;;8.10;4.40;;;14.00;59.30;;;;;;5051974;28;20438;-52
2021/11/01 22:48:30;;;;;;;3.03;2.60;;;14.00;59.60;;;;;;5051060;28;20427;-51
2021/11/01 22:56:32;;;;;;;3.20;2.40;;;13.90;59.10;;;;;;5051289;28;20484;-49
2021/11/01 22:58:58;;;;;;;3.87;2.80;;;13.90;58.90;;;;;;5048867;28;20449;-49
2021/11/01 23:01:26;;;;;;;3.30;3.00;;;14.00;59.00;;;;;;5050994;28;20927;-50
2021/11/01 23:33:26;;;;;;;5.70;3.93;;;13.70;59.80;;;;;;5051230;28;20430;-51
2021/11/01 23:35:54;;;;;;;7.37;4.20;;;13.70;59.80;;;;;;5050682;28;20900;-52
2021/11/01 23:38:19;;;;;;;4.50;3.67;;;13.70;59.90;;;;;;5051137;28;20430;-53
2021/11/01 23:40:46;;;;;;;4.60;4.20;;;13.70;59.90;;;;;;5048688;28;20423;-52
2021/11/01 23:43:13;;;;;;;4.03;3.23;;;13.40;60.60;;;;;;5051100;28;20204;-50
2021/11/01 23:45:43;;;;;;;4.33;3.93;;;13.00;62.20;;;;;;5050864;28;20427;-53
2021/11/01 23:48:09;;;;;;;5.20;3.77;;;13.00;63.00;;;;;;5051168;28;20423;-53
2021/11/01 23:50:36;;;;;;;9.13;6.07;;;13.00;63.20;;;;;;5050397;28;20479;-50
2021/11/01 23:53:10;;;;;;;5.70;4.20;;;13.10;63.20;;;;;;5048918;28;20431;-52
2021/11/01 23:55:36;;;;;;;6.30;4.47;;;13.20;63.00;;;;;;5050377;28;20430;-51
2021/11/01 23:58:06;;;;;;;7.23;4.10;;;13.40;62.60;;;;;;5051142;28;20496;-52
